Marida Marigold — V7PO7 — position and weather

sailwx.info

Track history (hours):
 
Tides and Currents Weather Stations Pressure Air Temp Water Temp Dewpoint Dewpoint Depression Visibility Wind Speed Wind Dir Waves Ship Positions

Marida Marigold

Last reported at 2017-Sep-19 04:38 UTC. Time now 2017-Sep-20 23:46 UTC.
Position N 03°54' W 002°27'.

Length 128 m; draft 7.6 m.

Type: Ship. MMSI: 538005559.

Date/timePositionNaut miles runAvg speedWind from/ knotsBaromVisibWave heightAir tempDewpointWater temp
2017-Sep-19 04:38N 03°54' W 002°27'0 3.1
2017-Sep-19 04:30N 03°54' W 002°27'  
2017-Sep-15 22:43N 03°60' W 001°59'2 9.6
2017-Sep-15 22:29N 03°60' W 002°01'47 1.9
2017-Sep-14 21:12N 03°54' W 002°48'6 3.3
2017-Sep-14 19:28N 04°00' W 002°48'5 3.4
2017-Sep-14 17:52N 04°05' W 002°48'2 3.5
2017-Sep-14 17:25N 04°07' W 002°48'2 3.7
2017-Sep-14 16:59N 04°09' W 002°48'2 3.5
2017-Sep-14 16:30N 04°10' W 002°49'0 0.9
2017-Sep-14 15:59N 04°10' W 002°50'0 0.9
2017-Sep-14 15:31N 04°10' W 002°50'2 3.0
2017-Sep-14 14:59N 04°11' W 002°49'0 0.6
2017-Sep-14 14:29N 04°11' W 002°48'2 3.4
2017-Sep-14 14:01N 04°10' W 002°47'4 8.5
2017-Sep-14 13:30N 04°08' W 002°43'4 8.8
2017-Sep-14 13:00N 04°05' W 002°40'4 8.6
2017-Sep-14 12:29N 04°02' W 002°36'4 8.6
2017-Sep-14 11:59N 03°58' W 002°34'4 9.2
2017-Sep-14 11:30N 03°54' W 002°34'4 7.2
2017-Sep-14 11:00N 03°51' W 002°33'1 1.0
2017-Sep-14 10:28N 03°50' W 002°34'1 1.1
2017-Sep-14 09:58N 03°50' W 002°34'1 1.2
2017-Sep-14 09:28N 03°50' W 002°35'0 1.1
2017-Sep-14 09:00N 03°50' W 002°35'1 1.3
2017-Sep-14 08:29N 03°50' W 002°36'1 1.3
2017-Sep-14 07:58N 03°50' W 002°37'1 1.2
2017-Sep-14 07:31N 03°50' W 002°37'1 1.3
2017-Sep-14 07:00N 03°50' W 002°38'1 1.2
2017-Sep-14 06:29N 03°51' W 002°38'3 5.1
2017-Sep-14 06:00N 03°52' W 002°36'3 4.9
2017-Sep-14 05:23N 03°54' W 002°33'2 5.0
2017-Sep-14 05:01N 03°55' W 002°32'4 5.0
2017-Sep-14 04:15N 03°57' W 002°28'1 5.0
2017-Sep-14 04:00N 03°58' W 002°27'2 5.0
2017-Sep-14 03:30N 03°59' W 002°25'2 4.9
2017-Sep-14 03:00N 04°01' W 002°23'3 4.9
2017-Sep-14 02:21N 04°03' W 002°21'0 0.2
2017-Sep-14 01:58N 04°03' W 002°21'1 1.2
2017-Sep-14 01:31N 04°02' W 002°21'1 1.1
2017-Sep-14 00:52N 04°02' W 002°22'0 1.2
2017-Sep-14 00:28N 04°02' W 002°22'1 1.2
2017-Sep-13 23:58N 04°02' W 002°23'0 1.0
2017-Sep-13 23:28N 04°01' W 002°23'0 0.9
2017-Sep-13 22:58N 04°01' W 002°24'0 0.8
2017-Sep-13 22:28N 04°01' W 002°24'0 0.8
2017-Sep-13 21:58N 04°01' W 002°24'0 0.9
2017-Sep-13 21:31N 04°00' W 002°25'1 1.1
2017-Sep-13 21:01N 04°00' W 002°25'0 0.9
2017-Sep-13 20:28N 03°60' W 002°26'0 0.8
2017-Sep-13 20:01N 03°60' W 002°26'0 0.7
2017-Sep-13 19:28N 03°59' W 002°26'0 0.8
2017-Sep-13 18:55N 03°59' W 002°27'0 0.9
2017-Sep-13 18:28N 03°59' W 002°27'0 0.9
2017-Sep-13 18:01N 03°59' W 002°27'0 0.8
2017-Sep-13 17:28N 03°59' W 002°28'0 0.8
2017-Sep-13 16:58N 03°58' W 002°28'0 0.9
2017-Sep-13 16:28N 03°58' W 002°28'0 0.9
2017-Sep-13 15:58N 03°58' W 002°29'1 0.9
2017-Sep-13 15:25N 03°57' W 002°29'0 1.0
2017-Sep-13 14:58N 03°57' W 002°29'0 0.9
2017-Sep-13 14:28N 03°57' W 002°30'0 0.9
2017-Sep-13 13:58N 03°57' W 002°30'1 1.0
2017-Sep-13 13:28N 03°56' W 002°30'1 1.0
2017-Sep-13 12:55N 03°56' W 002°31'0 0.9
2017-Sep-13 12:25N 03°55' W 002°31'0 0.8
2017-Sep-13 11:58N 03°55' W 002°31'2 3.0
2017-Sep-13 11:26N 03°54' W 002°30'4 8.8
2017-Sep-13 11:00N 03°51' W 002°28'5 9.5
2017-Sep-13 10:30N 03°47' W 002°25'26 1.5
2017-Sep-12 16:36N 03°33' W 002°03'0 0.8
2017-Sep-12 16:25N 03°33' W 002°03'3 1.2
2017-Sep-12 13:33N 03°37' W 002°01'0 2.2
2017-Sep-12 13:23N 03°37' W 002°01'10 1.7
2017-Sep-12 07:48N 03°45' W 001°55'1 3.3
2017-Sep-12 07:30N 03°45' W 001°55'23 2.6
2017-Sep-11 22:58N 04°02' W 001°39'30 1.3
2017-Sep-10 23:34N 03°44' W 002°03'1 9.4
2017-Sep-10 23:29N 03°43' W 002°04'5 9.5
2017-Sep-10 22:57N 03°40' W 002°08'11 9.4
2017-Sep-10 21:47N 03°34' W 002°17'510.1
2017-Sep-10 21:17N 03°32' W 002°21'  
Track history (hours):
 
Tides and Currents Weather Stations Pressure Air Temp Water Temp Dewpoint Dewpoint Depression Visibility Wind Speed Wind Dir Waves Ship Positions

Marida Marigold

Last reported at 2017-Sep-19 04:38 UTC. Time now 2017-Sep-20 23:46 UTC.
Position N 03°54' W 002°27'.

Length 128 m; draft 7.6 m.

Type: Ship. MMSI: 538005559.

Date/timePositionNaut miles runAvg speedWind from/ knotsBaromVisibWave heightAir tempDewpointWater temp
2017-Sep-19 04:38N 03°54' W 002°27'0 3.1
2017-Sep-19 04:30N 03°54' W 002°27'  
2017-Sep-15 22:43N 03°60' W 001°59'2 9.6
2017-Sep-15 22:29N 03°60' W 002°01'47 1.9
2017-Sep-14 21:12N 03°54' W 002°48'6 3.3
2017-Sep-14 19:28N 04°00' W 002°48'5 3.4
2017-Sep-14 17:52N 04°05' W 002°48'2 3.5
2017-Sep-14 17:25N 04°07' W 002°48'2 3.7
2017-Sep-14 16:59N 04°09' W 002°48'2 3.5
2017-Sep-14 16:30N 04°10' W 002°49'0 0.9
2017-Sep-14 15:59N 04°10' W 002°50'0 0.9
2017-Sep-14 15:31N 04°10' W 002°50'2 3.0
2017-Sep-14 14:59N 04°11' W 002°49'0 0.6
2017-Sep-14 14:29N 04°11' W 002°48'2 3.4
2017-Sep-14 14:01N 04°10' W 002°47'4 8.5
2017-Sep-14 13:30N 04°08' W 002°43'4 8.8
2017-Sep-14 13:00N 04°05' W 002°40'4 8.6
2017-Sep-14 12:29N 04°02' W 002°36'4 8.6
2017-Sep-14 11:59N 03°58' W 002°34'4 9.2
2017-Sep-14 11:30N 03°54' W 002°34'4 7.2
2017-Sep-14 11:00N 03°51' W 002°33'1 1.0
2017-Sep-14 10:28N 03°50' W 002°34'1 1.1
2017-Sep-14 09:58N 03°50' W 002°34'1 1.2
2017-Sep-14 09:28N 03°50' W 002°35'0 1.1
2017-Sep-14 09:00N 03°50' W 002°35'1 1.3
2017-Sep-14 08:29N 03°50' W 002°36'1 1.3
2017-Sep-14 07:58N 03°50' W 002°37'1 1.2
2017-Sep-14 07:31N 03°50' W 002°37'1 1.3
2017-Sep-14 07:00N 03°50' W 002°38'1 1.2
2017-Sep-14 06:29N 03°51' W 002°38'3 5.1
2017-Sep-14 06:00N 03°52' W 002°36'3 4.9
2017-Sep-14 05:23N 03°54' W 002°33'2 5.0
2017-Sep-14 05:01N 03°55' W 002°32'4 5.0
2017-Sep-14 04:15N 03°57' W 002°28'1 5.0
2017-Sep-14 04:00N 03°58' W 002°27'2 5.0
2017-Sep-14 03:30N 03°59' W 002°25'2 4.9
2017-Sep-14 03:00N 04°01' W 002°23'3 4.9
2017-Sep-14 02:21N 04°03' W 002°21'0 0.2
2017-Sep-14 01:58N 04°03' W 002°21'1 1.2
2017-Sep-14 01:31N 04°02' W 002°21'1 1.1
2017-Sep-14 00:52N 04°02' W 002°22'0 1.2
2017-Sep-14 00:28N 04°02' W 002°22'1 1.2
2017-Sep-13 23:58N 04°02' W 002°23'0 1.0
2017-Sep-13 23:28N 04°01' W 002°23'0 0.9
2017-Sep-13 22:58N 04°01' W 002°24'0 0.8
2017-Sep-13 22:28N 04°01' W 002°24'0 0.8
2017-Sep-13 21:58N 04°01' W 002°24'0 0.9
2017-Sep-13 21:31N 04°00' W 002°25'1 1.1
2017-Sep-13 21:01N 04°00' W 002°25'0 0.9
2017-Sep-13 20:28N 03°60' W 002°26'0 0.8
2017-Sep-13 20:01N 03°60' W 002°26'0 0.7
2017-Sep-13 19:28N 03°59' W 002°26'0 0.8
2017-Sep-13 18:55N 03°59' W 002°27'0 0.9
2017-Sep-13 18:28N 03°59' W 002°27'0 0.9
2017-Sep-13 18:01N 03°59' W 002°27'0 0.8
2017-Sep-13 17:28N 03°59' W 002°28'0 0.8
2017-Sep-13 16:58N 03°58' W 002°28'0 0.9
2017-Sep-13 16:28N 03°58' W 002°28'0 0.9
2017-Sep-13 15:58N 03°58' W 002°29'1 0.9
2017-Sep-13 15:25N 03°57' W 002°29'0 1.0
2017-Sep-13 14:58N 03°57' W 002°29'0 0.9
2017-Sep-13 14:28N 03°57' W 002°30'0 0.9
2017-Sep-13 13:58N 03°57' W 002°30'1 1.0
2017-Sep-13 13:28N 03°56' W 002°30'1 1.0
2017-Sep-13 12:55N 03°56' W 002°31'0 0.9
2017-Sep-13 12:25N 03°55' W 002°31'0 0.8
2017-Sep-13 11:58N 03°55' W 002°31'2 3.0
2017-Sep-13 11:26N 03°54' W 002°30'4 8.8
2017-Sep-13 11:00N 03°51' W 002°28'5 9.5
2017-Sep-13 10:30N 03°47' W 002°25'26 1.5
2017-Sep-12 16:36N 03°33' W 002°03'0 0.8
2017-Sep-12 16:25N 03°33' W 002°03'3 1.2
2017-Sep-12 13:33N 03°37' W 002°01'0 2.2
2017-Sep-12 13:23N 03°37' W 002°01'10 1.7
2017-Sep-12 07:48N 03°45' W 001°55'1 3.3
2017-Sep-12 07:30N 03°45' W 001°55'23 2.6
2017-Sep-11 22:58N 04°02' W 001°39'30 1.3
2017-Sep-10 23:34N 03°44' W 002°03'1 9.4
2017-Sep-10 23:29N 03°43' W 002°04'5 9.5
2017-Sep-10 22:57N 03°40' W 002°08'11 9.4
2017-Sep-10 21:47N 03°34' W 002°17'510.1
2017-Sep-10 21:17N 03°32' W 002°21'  

Dump ship's entire track history